Academy, New Jersey
Current Conditions -  °F | °C
As of 12:51 AM on Saturday 25 Oct 2014 (Local Time) from KEWR Reporting Station
Scattered Clouds Scattered Clouds  
Wind Chill: 13°   Ceiling: Unl
Heat Index: 13°   Visibility: 10mi
Dew Point:   Wind: 10mph
Humidity: 53%   Direction: 310°NW
Pressure: 29.85"   Gusts: NA
Location:  40.7334°N, 74.1735°W
Report Text: KEWR 250451Z 31009KT 10SM SCT250 13/03 A2985 RMK AO2 SLP109 T01280033 402060100
Loading
Personal Weather Stations






























Interactive Weather Map New forecast layout! Learn more

10-Day Weather Forecast

Advertisements
Track Severe Weather on mobile